sensor_id;sensor_type;location;lat;lon;timestamp;temperature;humidity
59307;DHT22;47983;53.016;-2.260;2023-03-23T00:01:09;7.70;99.90
59307;DHT22;47983;53.016;-2.260;2023-03-23T00:03:47;7.70;99.90
59307;DHT22;47983;53.016;-2.260;2023-03-23T00:06:14;7.70;99.90
59307;DHT22;47983;53.016;-2.260;2023-03-23T00:08:46;7.70;99.90
59307;DHT22;47983;53.016;-2.260;2023-03-23T00:11:18;7.80;99.90
59307;DHT22;47983;53.016;-2.260;2023-03-23T00:13:47;7.80;99.90
59307;DHT22;47983;53.016;-2.260;2023-03-23T00:16:21;7.80;99.90
59307;DHT22;47983;53.016;-2.260;2023-03-23T00:19:02;7.80;99.90
59307;DHT22;47983;53.016;-2.260;2023-03-23T00:21:32;7.80;99.90
59307;DHT22;47983;53.016;-2.260;2023-03-23T00:24:02;7.80;99.90
59307;DHT22;47983;53.016;-2.260;2023-03-23T00:26:29;7.80;99.90
59307;DHT22;47983;53.016;-2.260;2023-03-23T00:28:56;7.80;99.90
59307;DHT22;47983;53.016;-2.260;2023-03-23T00:31:22;7.90;99.90
59307;DHT22;47983;53.016;-2.260;2023-03-23T00:36:15;7.80;99.90
59307;DHT22;47983;53.016;-2.260;2023-03-23T00:38:44;7.80;99.90
59307;DHT22;47983;53.016;-2.260;2023-03-23T00:41:13;7.80;99.90
59307;DHT22;47983;53.016;-2.260;2023-03-23T00:43:41;7.70;99.90
59307;DHT22;47983;53.016;-2.260;2023-03-23T00:46:08;7.70;99.90
59307;DHT22;47983;53.016;-2.260;2023-03-23T00:48:36;7.60;99.90
59307;DHT22;47983;53.016;-2.260;2023-03-23T00:51:11;7.50;99.90
59307;DHT22;47983;53.016;-2.260;2023-03-23T00:53:39;7.50;99.90
59307;DHT22;47983;53.016;-2.260;2023-03-23T00:56:07;7.40;99.90
59307;DHT22;47983;53.016;-2.260;2023-03-23T00:58:35;7.40;99.90
59307;DHT22;47983;53.016;-2.260;2023-03-23T01:01:03;7.30;99.90
59307;DHT22;47983;53.016;-2.260;2023-03-23T01:03:30;7.30;99.90
59307;DHT22;47983;53.016;-2.260;2023-03-23T01:06:07;7.20;99.90
59307;DHT22;47983;53.016;-2.260;2023-03-23T01:08:34;7.20;99.90
59307;DHT22;47983;53.016;-2.260;2023-03-23T01:11:05;7.10;99.90
59307;DHT22;47983;53.016;-2.260;2023-03-23T01:13:32;7.10;99.90
59307;DHT22;47983;53.016;-2.260;2023-03-23T01:15:58;7.10;99.90
59307;DHT22;47983;53.016;-2.260;2023-03-23T01:18:25;7.00;99.90
59307;DHT22;47983;53.016;-2.260;2023-03-23T01:20:52;6.90;99.90
59307;DHT22;47983;53.016;-2.260;2023-03-23T01:23:18;6.90;99.90
59307;DHT22;47983;53.016;-2.260;2023-03-23T01:25:45;6.90;99.90
59307;DHT22;47983;53.016;-2.260;2023-03-23T01:28:12;6.90;99.90
59307;DHT22;47983;53.016;-2.260;2023-03-23T01:30:38;6.90;99.90
59307;DHT22;47983;53.016;-2.260;2023-03-23T01:33:05;6.80;99.90
59307;DHT22;47983;53.016;-2.260;2023-03-23T01:35:31;6.90;99.90
59307;DHT22;47983;53.016;-2.260;2023-03-23T01:37:58;6.90;99.90
59307;DHT22;47983;53.016;-2.260;2023-03-23T01:40:26;6.80;99.90
59307;DHT22;47983;53.016;-2.260;2023-03-23T01:42:56;6.80;99.90
59307;DHT22;47983;53.016;-2.260;2023-03-23T01:45:26;6.80;99.90
59307;DHT22;47983;53.016;-2.260;2023-03-23T01:50:51;6.80;99.90
59307;DHT22;47983;53.016;-2.260;2023-03-23T01:53:21;6.70;99.90
59307;DHT22;47983;53.016;-2.260;2023-03-23T01:55:50;6.70;99.90
59307;DHT22;47983;53.016;-2.260;2023-03-23T01:58:21;6.70;99.90
59307;DHT22;47983;53.016;-2.260;2023-03-23T02:00:54;6.70;99.90
59307;DHT22;47983;53.016;-2.260;2023-03-23T02:03:22;6.60;99.90
59307;DHT22;47983;53.016;-2.260;2023-03-23T02:05:50;6.60;99.90
59307;DHT22;47983;53.016;-2.260;2023-03-23T02:08:27;6.60;99.90
59307;DHT22;47983;53.016;-2.260;2023-03-23T02:10:55;6.60;99.90
59307;DHT22;47983;53.016;-2.260;2023-03-23T02:13:22;6.60;99.90
59307;DHT22;47983;53.016;-2.260;2023-03-23T02:15:57;6.50;99.90
59307;DHT22;47983;53.016;-2.260;2023-03-23T02:18:35;6.50;99.90
59307;DHT22;47983;53.016;-2.260;2023-03-23T02:37:22;6.30;99.90
59307;DHT22;47983;53.016;-2.260;2023-03-23T02:39:57;6.30;99.90
59307;DHT22;47983;53.016;-2.260;2023-03-23T02:42:29;6.30;99.90
59307;DHT22;47983;53.016;-2.260;2023-03-23T02:45:03;6.30;99.90
59307;DHT22;47983;53.016;-2.260;2023-03-23T02:47:30;6.30;99.90
59307;DHT22;47983;53.016;-2.260;2023-03-23T02:49:59;6.30;99.90
59307;DHT22;47983;53.016;-2.260;2023-03-23T02:52:29;6.30;99.90
59307;DHT22;47983;53.016;-2.260;2023-03-23T02:54:57;6.30;99.90
59307;DHT22;47983;53.016;-2.260;2023-03-23T02:57:28;6.40;99.90
59307;DHT22;47983;53.016;-2.260;2023-03-23T02:59:57;6.40;99.90
59307;DHT22;47983;53.016;-2.260;2023-03-23T03:02:25;6.40;99.90
59307;DHT22;47983;53.016;-2.260;2023-03-23T03:16:06;6.30;99.90
59307;DHT22;47983;53.016;-2.260;2023-03-23T03:21:07;6.20;99.90
59307;DHT22;47983;53.016;-2.260;2023-03-23T03:23:36;6.20;99.90
59307;DHT22;47983;53.016;-2.260;2023-03-23T03:26:05;6.10;99.90
59307;DHT22;47983;53.016;-2.260;2023-03-23T03:28:45;6.00;99.90
59307;DHT22;47983;53.016;-2.260;2023-03-23T03:31:17;5.90;99.90
59307;DHT22;47983;53.016;-2.260;2023-03-23T03:33:45;6.00;99.90
59307;DHT22;47983;53.016;-2.260;2023-03-23T03:36:19;5.90;99.90
59307;DHT22;47983;53.016;-2.260;2023-03-23T03:38:49;5.90;99.90
59307;DHT22;47983;53.016;-2.260;2023-03-23T03:41:18;5.90;99.90
59307;DHT22;47983;53.016;-2.260;2023-03-23T03:43:46;5.80;99.90
59307;DHT22;47983;53.016;-2.260;2023-03-23T03:46:12;5.70;99.90
59307;DHT22;47983;53.016;-2.260;2023-03-23T03:48:39;5.70;99.90
59307;DHT22;47983;53.016;-2.260;2023-03-23T03:51:05;5.70;99.90
59307;DHT22;47983;53.016;-2.260;2023-03-23T03:53:38;5.70;99.90
59307;DHT22;47983;53.016;-2.260;2023-03-23T03:56:05;5.60;99.90
59307;DHT22;47983;53.016;-2.260;2023-03-23T03:58:39;5.60;99.90
59307;DHT22;47983;53.016;-2.260;2023-03-23T04:01:21;5.60;99.90
59307;DHT22;47983;53.016;-2.260;2023-03-23T04:03:51;5.50;99.90
59307;DHT22;47983;53.016;-2.260;2023-03-23T04:06:27;5.50;99.90
59307;DHT22;47983;53.016;-2.260;2023-03-23T04:08:58;5.50;99.90
59307;DHT22;47983;53.016;-2.260;2023-03-23T04:11:26;5.40;99.90
59307;DHT22;47983;53.016;-2.260;2023-03-23T04:13:57;5.30;99.90
59307;DHT22;47983;53.016;-2.260;2023-03-23T04:16:26;5.30;99.90
59307;DHT22;47983;53.016;-2.260;2023-03-23T04:18:56;5.30;99.90
59307;DHT22;47983;53.016;-2.260;2023-03-23T04:21:25;5.20;99.90
59307;DHT22;47983;53.016;-2.260;2023-03-23T04:23:56;5.20;99.90
59307;DHT22;47983;53.016;-2.260;2023-03-23T04:26:27;5.10;99.90
59307;DHT22;47983;53.016;-2.260;2023-03-23T04:28:58;5.10;99.90
59307;DHT22;47983;53.016;-2.260;2023-03-23T04:31:35;5.20;99.90
59307;DHT22;47983;53.016;-2.260;2023-03-23T04:34:25;5.10;99.90
59307;DHT22;47983;53.016;-2.260;2023-03-23T04:36:52;5.20;99.90
59307;DHT22;47983;53.016;-2.260;2023-03-23T04:39:23;5.20;99.90
59307;DHT22;47983;53.016;-2.260;2023-03-23T04:41:52;5.20;99.90
59307;DHT22;47983;53.016;-2.260;2023-03-23T04:44:47;5.20;99.90
59307;DHT22;47983;53.016;-2.260;2023-03-23T04:47:25;5.20;99.90
59307;DHT22;47983;53.016;-2.260;2023-03-23T04:49:58;5.20;99.90
59307;DHT22;47983;53.016;-2.260;2023-03-23T04:52:31;5.30;99.90
59307;DHT22;47983;53.016;-2.260;2023-03-23T04:55:01;5.30;99.90
59307;DHT22;47983;53.016;-2.260;2023-03-23T04:57:28;5.30;99.90
59307;DHT22;47983;53.016;-2.260;2023-03-23T05:00:18;5.30;99.90
59307;DHT22;47983;53.016;-2.260;2023-03-23T05:02:53;5.30;99.90
59307;DHT22;47983;53.016;-2.260;2023-03-23T05:05:24;5.30;99.90
59307;DHT22;47983;53.016;-2.260;2023-03-23T05:07:54;5.30;99.90
59307;DHT22;47983;53.016;-2.260;2023-03-23T05:10:24;5.30;99.90
59307;DHT22;47983;53.016;-2.260;2023-03-23T05:12:53;5.40;99.90
59307;DHT22;47983;53.016;-2.260;2023-03-23T05:15:20;5.40;99.90
59307;DHT22;47983;53.016;-2.260;2023-03-23T05:17:47;5.40;99.90
59307;DHT22;47983;53.016;-2.260;2023-03-23T05:20:19;5.40;99.90
59307;DHT22;47983;53.016;-2.260;2023-03-23T05:22:52;5.40;99.90
59307;DHT22;47983;53.016;-2.260;2023-03-23T05:25:27;5.40;99.90
59307;DHT22;47983;53.016;-2.260;2023-03-23T05:28:00;5.40;99.90
59307;DHT22;47983;53.016;-2.260;2023-03-23T05:30:48;5.40;99.90
59307;DHT22;47983;53.016;-2.260;2023-03-23T05:33:16;5.50;99.90
59307;DHT22;47983;53.016;-2.260;2023-03-23T05:35:47;5.40;99.90
59307;DHT22;47983;53.016;-2.260;2023-03-23T05:38:15;5.40;99.90
59307;DHT22;47983;53.016;-2.260;2023-03-23T05:40:46;5.40;99.90
59307;DHT22;47983;53.016;-2.260;2023-03-23T05:43:16;5.50;99.90
59307;DHT22;47983;53.016;-2.260;2023-03-23T05:45:52;5.40;99.90
59307;DHT22;47983;53.016;-2.260;2023-03-23T05:48:18;5.50;99.90
59307;DHT22;47983;53.016;-2.260;2023-03-23T05:50:45;5.50;99.90
59307;DHT22;47983;53.016;-2.260;2023-03-23T05:53:12;5.50;99.90
59307;DHT22;47983;53.016;-2.260;2023-03-23T05:55:39;5.50;99.90
59307;DHT22;47983;53.016;-2.260;2023-03-23T05:58:19;5.50;99.90
59307;DHT22;47983;53.016;-2.260;2023-03-23T06:00:47;5.50;99.90
59307;DHT22;47983;53.016;-2.260;2023-03-23T06:03:22;5.50;99.90
59307;DHT22;47983;53.016;-2.260;2023-03-23T06:06:11;5.50;99.90
59307;DHT22;47983;53.016;-2.260;2023-03-23T06:08:55;5.50;99.90
59307;DHT22;47983;53.016;-2.260;2023-03-23T06:11:36;5.60;99.90
59307;DHT22;47983;53.016;-2.260;2023-03-23T06:14:31;5.70;99.90
59307;DHT22;47983;53.016;-2.260;2023-03-23T06:16:59;5.70;99.90
59307;DHT22;47983;53.016;-2.260;2023-03-23T06:19:26;5.70;99.90
59307;DHT22;47983;53.016;-2.260;2023-03-23T06:22:06;5.80;99.90
59307;DHT22;47983;53.016;-2.260;2023-03-23T06:24:42;5.70;99.90
59307;DHT22;47983;53.016;-2.260;2023-03-23T06:27:08;5.80;99.90
59307;DHT22;47983;53.016;-2.260;2023-03-23T06:29:37;5.90;99.90
59307;DHT22;47983;53.016;-2.260;2023-03-23T06:32:04;5.90;99.90
59307;DHT22;47983;53.016;-2.260;2023-03-23T06:34:32;6.00;99.90
59307;DHT22;47983;53.016;-2.260;2023-03-23T06:37:17;6.10;99.90
59307;DHT22;47983;53.016;-2.260;2023-03-23T06:39:57;6.20;99.90
59307;DHT22;47983;53.016;-2.260;2023-03-23T06:42:31;6.20;99.90
59307;DHT22;47983;53.016;-2.260;2023-03-23T06:45:21;6.30;99.90
59307;DHT22;47983;53.016;-2.260;2023-03-23T06:47:52;6.40;99.90
59307;DHT22;47983;53.016;-2.260;2023-03-23T06:50:20;6.50;99.90
59307;DHT22;47983;53.016;-2.260;2023-03-23T06:52:49;6.50;99.90
59307;DHT22;47983;53.016;-2.260;2023-03-23T06:55:17;6.60;99.90
59307;DHT22;47983;53.016;-2.260;2023-03-23T06:57:44;6.70;99.90
59307;DHT22;47983;53.016;-2.260;2023-03-23T07:00:16;6.70;99.90
59307;DHT22;47983;53.016;-2.260;2023-03-23T07:02:44;6.70;99.90
59307;DHT22;47983;53.016;-2.260;2023-03-23T07:05:12;6.70;99.90
59307;DHT22;47983;53.016;-2.260;2023-03-23T07:07:40;6.60;99.90
59307;DHT22;47983;53.016;-2.260;2023-03-23T07:10:21;6.70;99.90
59307;DHT22;47983;53.016;-2.260;2023-03-23T07:12:48;6.70;99.90
59307;DHT22;47983;53.016;-2.260;2023-03-23T07:15:15;6.80;99.90
59307;DHT22;47983;53.016;-2.260;2023-03-23T07:17:47;6.80;99.90
59307;DHT22;47983;53.016;-2.260;2023-03-23T07:20:20;6.80;99.90
59307;DHT22;47983;53.016;-2.260;2023-03-23T07:22:47;6.90;99.90
59307;DHT22;47983;53.016;-2.260;2023-03-23T07:25:28;7.00;99.90
59307;DHT22;47983;53.016;-2.260;2023-03-23T07:27:56;7.10;99.90
59307;DHT22;47983;53.016;-2.260;2023-03-23T07:30:23;7.10;99.90
59307;DHT22;47983;53.016;-2.260;2023-03-23T07:32:50;7.20;99.90
59307;DHT22;47983;53.016;-2.260;2023-03-23T07:35:18;7.30;99.90
59307;DHT22;47983;53.016;-2.260;2023-03-23T07:38:03;7.40;99.90
59307;DHT22;47983;53.016;-2.260;2023-03-23T07:40:31;7.50;99.90
59307;DHT22;47983;53.016;-2.260;2023-03-23T07:43:04;7.50;99.90
59307;DHT22;47983;53.016;-2.260;2023-03-23T07:45:49;7.60;99.90
59307;DHT22;47983;53.016;-2.260;2023-03-23T07:48:17;7.60;99.90
59307;DHT22;47983;53.016;-2.260;2023-03-23T07:50:45;7.70;99.90
59307;DHT22;47983;53.016;-2.260;2023-03-23T07:53:13;7.70;99.90
59307;DHT22;47983;53.016;-2.260;2023-03-23T07:55:46;7.70;99.90
59307;DHT22;47983;53.016;-2.260;2023-03-23T07:58:47;7.80;99.90
59307;DHT22;47983;53.016;-2.260;2023-03-23T08:01:14;7.80;99.90
59307;DHT22;47983;53.016;-2.260;2023-03-23T08:03:47;7.90;99.90
59307;DHT22;47983;53.016;-2.260;2023-03-23T08:06:33;7.90;99.90
59307;DHT22;47983;53.016;-2.260;2023-03-23T08:09:21;8.00;99.90
59307;DHT22;47983;53.016;-2.260;2023-03-23T08:12:01;8.00;99.90
59307;DHT22;47983;53.016;-2.260;2023-03-23T08:14:40;8.10;99.90
59307;DHT22;47983;53.016;-2.260;2023-03-23T08:17:25;8.10;99.90
59307;DHT22;47983;53.016;-2.260;2023-03-23T08:20:21;8.20;99.90
59307;DHT22;47983;53.016;-2.260;2023-03-23T08:23:00;8.20;99.90
59307;DHT22;47983;53.016;-2.260;2023-03-23T08:25:31;8.30;99.90
59307;DHT22;47983;53.016;-2.260;2023-03-23T08:28:18;8.30;99.90
59307;DHT22;47983;53.016;-2.260;2023-03-23T08:31:08;8.40;99.90
59307;DHT22;47983;53.016;-2.260;2023-03-23T08:33:59;8.60;99.90
59307;DHT22;47983;53.016;-2.260;2023-03-23T08:36:55;8.80;99.90
59307;DHT22;47983;53.016;-2.260;2023-03-23T08:39:55;9.00;99.90
59307;DHT22;47983;53.016;-2.260;2023-03-23T08:42:42;9.10;99.90
59307;DHT22;47983;53.016;-2.260;2023-03-23T08:45:31;9.10;99.90
59307;DHT22;47983;53.016;-2.260;2023-03-23T08:48:26;9.20;99.90
59307;DHT22;47983;53.016;-2.260;2023-03-23T08:51:19;9.20;99.90
59307;DHT22;47983;53.016;-2.260;2023-03-23T08:53:48;9.30;99.90
59307;DHT22;47983;53.016;-2.260;2023-03-23T08:56:34;9.40;99.90
59307;DHT22;47983;53.016;-2.260;2023-03-23T08:59:11;9.60;99.90
59307;DHT22;47983;53.016;-2.260;2023-03-23T09:04:43;9.70;99.90
59307;DHT22;47983;53.016;-2.260;2023-03-23T09:07:33;9.70;99.90
59307;DHT22;47983;53.016;-2.260;2023-03-23T09:09:59;9.90;99.90
59307;DHT22;47983;53.016;-2.260;2023-03-23T09:12:26;9.90;99.90
59307;DHT22;47983;53.016;-2.260;2023-03-23T09:14:52;9.90;99.90
59307;DHT22;47983;53.016;-2.260;2023-03-23T09:17:19;9.90;99.90
59307;DHT22;47983;53.016;-2.260;2023-03-23T09:19:46;9.90;99.90
59307;DHT22;47983;53.016;-2.260;2023-03-23T09:22:12;9.90;99.90
59307;DHT22;47983;53.016;-2.260;2023-03-23T09:24:39;10.00;99.90
59307;DHT22;47983;53.016;-2.260;2023-03-23T09:27:06;10.00;99.90
59307;DHT22;47983;53.016;-2.260;2023-03-23T09:29:33;10.00;99.90
59307;DHT22;47983;53.016;-2.260;2023-03-23T09:32:00;10.00;99.90
59307;DHT22;47983;53.016;-2.260;2023-03-23T09:34:26;10.00;99.90
59307;DHT22;47983;53.016;-2.260;2023-03-23T09:36:55;10.00;99.90
59307;DHT22;47983;53.016;-2.260;2023-03-23T09:39:22;10.00;99.90
59307;DHT22;47983;53.016;-2.260;2023-03-23T09:45:10;10.00;99.90
59307;DHT22;47983;53.016;-2.260;2023-03-23T09:48:19;10.00;99.90
59307;DHT22;47983;53.016;-2.260;2023-03-23T09:50:51;10.00;99.90
59307;DHT22;47983;53.016;-2.260;2023-03-23T09:53:30;10.10;99.90
59307;DHT22;47983;53.016;-2.260;2023-03-23T09:56:05;10.20;99.90
59307;DHT22;47983;53.016;-2.260;2023-03-23T09:58:45;10.20;99.90
59307;DHT22;47983;53.016;-2.260;2023-03-23T10:01:15;10.20;99.90
59307;DHT22;47983;53.016;-2.260;2023-03-23T10:03:44;10.30;99.90
59307;DHT22;47983;53.016;-2.260;2023-03-23T10:06:14;10.40;99.90
59307;DHT22;47983;53.016;-2.260;2023-03-23T10:08:49;10.60;99.90
59307;DHT22;47983;53.016;-2.260;2023-03-23T10:22:31;11.40;99.90
59307;DHT22;47983;53.016;-2.260;2023-03-23T10:25:21;11.80;99.90
59307;DHT22;47983;53.016;-2.260;2023-03-23T10:30:37;12.00;99.90
59307;DHT22;47983;53.016;-2.260;2023-03-23T10:33:39;12.20;99.90
59307;DHT22;47983;53.016;-2.260;2023-03-23T10:36:28;12.30;99.90
59307;DHT22;47983;53.016;-2.260;2023-03-23T10:39:19;12.40;99.90
59307;DHT22;47983;53.016;-2.260;2023-03-23T10:41:46;12.40;99.90
59307;DHT22;47983;53.016;-2.260;2023-03-23T10:44:20;12.50;99.90
59307;DHT22;47983;53.016;-2.260;2023-03-23T10:46:58;12.60;99.90
59307;DHT22;47983;53.016;-2.260;2023-03-23T10:49:45;12.60;99.90
59307;DHT22;47983;53.016;-2.260;2023-03-23T10:55:16;12.40;99.90
59307;DHT22;47983;53.016;-2.260;2023-03-23T10:57:44;12.20;99.90
59307;DHT22;47983;53.016;-2.260;2023-03-23T11:02:44;11.80;99.90
59307;DHT22;47983;53.016;-2.260;2023-03-23T11:05:23;11.50;99.90
59307;DHT22;47983;53.016;-2.260;2023-03-23T11:07:55;11.40;99.90
59307;DHT22;47983;53.016;-2.260;2023-03-23T11:10:23;11.30;99.90
59307;DHT22;47983;53.016;-2.260;2023-03-23T11:12:51;11.40;99.90
59307;DHT22;47983;53.016;-2.260;2023-03-23T11:15:34;11.40;99.90
59307;DHT22;47983;53.016;-2.260;2023-03-23T11:18:11;11.70;99.90
59307;DHT22;47983;53.016;-2.260;2023-03-23T11:20:44;11.90;99.90
59307;DHT22;47983;53.016;-2.260;2023-03-23T11:28:52;12.80;99.90
59307;DHT22;47983;53.016;-2.260;2023-03-23T11:31:27;13.10;99.90
59307;DHT22;47983;53.016;-2.260;2023-03-23T11:34:02;13.40;99.90
59307;DHT22;47983;53.016;-2.260;2023-03-23T11:36:33;13.70;99.90
59307;DHT22;47983;53.016;-2.260;2023-03-23T11:39:02;13.60;99.90
59307;DHT22;47983;53.016;-2.260;2023-03-23T11:41:35;13.70;99.90
59307;DHT22;47983;53.016;-2.260;2023-03-23T11:44:10;13.70;99.90
59307;DHT22;47983;53.016;-2.260;2023-03-23T11:47:01;13.90;99.90
59307;DHT22;47983;53.016;-2.260;2023-03-23T11:53:06;14.20;99.90
59307;DHT22;47983;53.016;-2.260;2023-03-23T11:55:11;14.40;99.90
59307;DHT22;47983;53.016;-2.260;2023-03-23T11:57:42;14.40;99.90
59307;DHT22;47983;53.016;-2.260;2023-03-23T12:00:20;14.20;99.90
59307;DHT22;47983;53.016;-2.260;2023-03-23T12:03:04;14.30;99.90
59307;DHT22;47983;53.016;-2.260;2023-03-23T12:08:20;14.60;99.90
59307;DHT22;47983;53.016;-2.260;2023-03-23T12:16:14;15.60;99.90
59307;DHT22;47983;53.016;-2.260;2023-03-23T12:18:48;16.20;99.90
59307;DHT22;47983;53.016;-2.260;2023-03-23T12:21:55;16.50;99.90
59307;DHT22;47983;53.016;-2.260;2023-03-23T12:30:04;15.70;99.90
59307;DHT22;47983;53.016;-2.260;2023-03-23T12:41:37;15.40;99.90
59307;DHT22;47983;53.016;-2.260;2023-03-23T12:44:12;16.00;99.90
59307;DHT22;47983;53.016;-2.260;2023-03-23T12:49:23;16.40;99.90
59307;DHT22;47983;53.016;-2.260;2023-03-23T12:52:25;16.80;99.90
59307;DHT22;47983;53.016;-2.260;2023-03-23T12:57:56;16.70;99.90
59307;DHT22;47983;53.016;-2.260;2023-03-23T13:05:54;15.80;99.90
59307;DHT22;47983;53.016;-2.260;2023-03-23T13:08:31;15.90;99.90
59307;DHT22;47983;53.016;-2.260;2023-03-23T13:11:04;16.00;99.90
59307;DHT22;47983;53.016;-2.260;2023-03-23T13:13:47;15.80;99.90
59307;DHT22;47983;53.016;-2.260;2023-03-23T13:19:13;16.10;99.90
59307;DHT22;47983;53.016;-2.260;2023-03-23T13:24:09;17.30;99.90
59307;DHT22;47983;53.016;-2.260;2023-03-23T13:26:39;17.30;99.90
59307;DHT22;47983;53.016;-2.260;2023-03-23T13:29:09;17.60;98.90
59307;DHT22;47983;53.016;-2.260;2023-03-23T13:31:41;18.30;95.70
59307;DHT22;47983;53.016;-2.260;2023-03-23T13:34:30;18.30;96.30
59307;DHT22;47983;53.016;-2.260;2023-03-23T13:37:05;18.60;94.90
59307;DHT22;47983;53.016;-2.260;2023-03-23T13:39:37;18.60;93.70
59307;DHT22;47983;53.016;-2.260;2023-03-23T13:50:01;18.10;91.90
59307;DHT22;47983;53.016;-2.260;2023-03-23T13:52:50;17.50;93.50
59307;DHT22;47983;53.016;-2.260;2023-03-23T14:08:10;19.00;95.80
59307;DHT22;47983;53.016;-2.260;2023-03-23T14:10:52;16.20;96.20
59307;DHT22;47983;53.016;-2.260;2023-03-23T14:13:42;15.60;98.30
59307;DHT22;47983;53.016;-2.260;2023-03-23T14:16:22;15.50;99.40
59307;DHT22;47983;53.016;-2.260;2023-03-23T14:18:55;15.20;99.90
59307;DHT22;47983;53.016;-2.260;2023-03-23T14:21:48;14.90;99.90
59307;DHT22;47983;53.016;-2.260;2023-03-23T14:24:22;14.60;99.90
59307;DHT22;47983;53.016;-2.260;2023-03-23T14:26:51;14.40;99.90
59307;DHT22;47983;53.016;-2.260;2023-03-23T14:29:21;14.20;99.90
59307;DHT22;47983;53.016;-2.260;2023-03-23T14:31:53;13.90;99.90
59307;DHT22;47983;53.016;-2.260;2023-03-23T14:34:22;13.80;99.90
59307;DHT22;47983;53.016;-2.260;2023-03-23T14:36:50;13.70;99.90
59307;DHT22;47983;53.016;-2.260;2023-03-23T14:41:44;13.70;99.90
59307;DHT22;47983;53.016;-2.260;2023-03-23T14:44:16;13.60;99.90
59307;DHT22;47983;53.016;-2.260;2023-03-23T14:46:44;13.50;99.90
59307;DHT22;47983;53.016;-2.260;2023-03-23T14:49:14;13.50;99.90
59307;DHT22;47983;53.016;-2.260;2023-03-23T14:51:51;13.60;99.90
59307;DHT22;47983;53.016;-2.260;2023-03-23T14:54:28;13.70;99.90
59307;DHT22;47983;53.016;-2.260;2023-03-23T14:57:09;13.70;99.90
59307;DHT22;47983;53.016;-2.260;2023-03-23T14:59:39;13.80;99.90
59307;DHT22;47983;53.016;-2.260;2023-03-23T15:02:08;13.80;99.90
59307;DHT22;47983;53.016;-2.260;2023-03-23T15:04:36;13.90;99.90
59307;DHT22;47983;53.016;-2.260;2023-03-23T15:07:04;14.00;99.90
59307;DHT22;47983;53.016;-2.260;2023-03-23T15:09:32;14.00;99.90
59307;DHT22;47983;53.016;-2.260;2023-03-23T15:12:02;14.00;99.90
59307;DHT22;47983;53.016;-2.260;2023-03-23T15:14:44;13.90;99.90
59307;DHT22;47983;53.016;-2.260;2023-03-23T15:17:25;13.90;99.90
59307;DHT22;47983;53.016;-2.260;2023-03-23T15:19:53;13.90;99.90
59307;DHT22;47983;53.016;-2.260;2023-03-23T15:22:24;13.90;99.90
59307;DHT22;47983;53.016;-2.260;2023-03-23T15:25:11;13.90;99.90
59307;DHT22;47983;53.016;-2.260;2023-03-23T15:27:43;13.90;99.90
59307;DHT22;47983;53.016;-2.260;2023-03-23T15:32:55;13.80;99.90
59307;DHT22;47983;53.016;-2.260;2023-03-23T15:35:25;13.80;99.90
59307;DHT22;47983;53.016;-2.260;2023-03-23T15:37:58;13.70;99.90
59307;DHT22;47983;53.016;-2.260;2023-03-23T15:40:26;13.70;99.90
59307;DHT22;47983;53.016;-2.260;2023-03-23T15:46:03;13.70;99.90
59307;DHT22;47983;53.016;-2.260;2023-03-23T15:48:34;13.70;99.90
59307;DHT22;47983;53.016;-2.260;2023-03-23T15:51:11;13.70;99.90
59307;DHT22;47983;53.016;-2.260;2023-03-23T15:53:39;13.60;99.90
59307;DHT22;47983;53.016;-2.260;2023-03-23T15:56:09;13.60;99.90
59307;DHT22;47983;53.016;-2.260;2023-03-23T15:58:37;13.60;99.90
59307;DHT22;47983;53.016;-2.260;2023-03-23T16:01:13;13.60;99.90
59307;DHT22;47983;53.016;-2.260;2023-03-23T16:04:06;13.50;99.90
59307;DHT22;47983;53.016;-2.260;2023-03-23T16:06:32;13.60;99.90
59307;DHT22;47983;53.016;-2.260;2023-03-23T16:09:01;13.60;99.90
59307;DHT22;47983;53.016;-2.260;2023-03-23T16:11:30;13.60;99.90
59307;DHT22;47983;53.016;-2.260;2023-03-23T16:14:00;13.60;99.90
59307;DHT22;47983;53.016;-2.260;2023-03-23T16:16:37;13.60;99.90
59307;DHT22;47983;53.016;-2.260;2023-03-23T16:19:05;13.50;99.90
59307;DHT22;47983;53.016;-2.260;2023-03-23T16:21:33;13.40;99.90
59307;DHT22;47983;53.016;-2.260;2023-03-23T16:24:01;13.30;99.90
59307;DHT22;47983;53.016;-2.260;2023-03-23T16:26:31;13.30;99.90
59307;DHT22;47983;53.016;-2.260;2023-03-23T16:28:58;13.30;99.90
59307;DHT22;47983;53.016;-2.260;2023-03-23T16:31:46;13.20;99.90
59307;DHT22;47983;53.016;-2.260;2023-03-23T16:34:13;13.20;99.90
59307;DHT22;47983;53.016;-2.260;2023-03-23T16:36:41;13.20;99.90
59307;DHT22;47983;53.016;-2.260;2023-03-23T16:39:11;13.20;99.90
59307;DHT22;47983;53.016;-2.260;2023-03-23T16:41:41;13.10;99.90
59307;DHT22;47983;53.016;-2.260;2023-03-23T16:44:09;13.10;99.90
59307;DHT22;47983;53.016;-2.260;2023-03-23T16:46:36;13.00;99.90
59307;DHT22;47983;53.016;-2.260;2023-03-23T16:49:04;12.90;99.90
59307;DHT22;47983;53.016;-2.260;2023-03-23T16:51:32;12.90;99.90
59307;DHT22;47983;53.016;-2.260;2023-03-23T16:53:59;12.80;99.90
59307;DHT22;47983;53.016;-2.260;2023-03-23T16:56:28;12.80;99.90
59307;DHT22;47983;53.016;-2.260;2023-03-23T16:58:56;12.70;99.90
59307;DHT22;47983;53.016;-2.260;2023-03-23T17:01:23;12.70;99.90
59307;DHT22;47983;53.016;-2.260;2023-03-23T17:03:51;12.60;99.90
59307;DHT22;47983;53.016;-2.260;2023-03-23T17:06:20;12.40;99.90
59307;DHT22;47983;53.016;-2.260;2023-03-23T17:08:48;12.40;99.90
59307;DHT22;47983;53.016;-2.260;2023-03-23T17:11:18;12.40;99.90
59307;DHT22;47983;53.016;-2.260;2023-03-23T17:13:45;12.20;99.90
59307;DHT22;47983;53.016;-2.260;2023-03-23T17:16:14;12.20;99.90
59307;DHT22;47983;53.016;-2.260;2023-03-23T17:18:41;12.00;99.90
59307;DHT22;47983;53.016;-2.260;2023-03-23T17:21:10;11.90;99.90
59307;DHT22;47983;53.016;-2.260;2023-03-23T17:23:38;11.70;99.90
59307;DHT22;47983;53.016;-2.260;2023-03-23T17:26:06;11.70;99.90
59307;DHT22;47983;53.016;-2.260;2023-03-23T17:28:33;11.70;99.90
59307;DHT22;47983;53.016;-2.260;2023-03-23T17:31:01;11.70;99.90
59307;DHT22;47983;53.016;-2.260;2023-03-23T17:33:29;11.70;99.90
59307;DHT22;47983;53.016;-2.260;2023-03-23T17:35:57;11.60;99.90
59307;DHT22;47983;53.016;-2.260;2023-03-23T17:40:57;11.50;99.90
59307;DHT22;47983;53.016;-2.260;2023-03-23T17:43:25;11.50;99.90
59307;DHT22;47983;53.016;-2.260;2023-03-23T17:45:53;11.50;99.90
59307;DHT22;47983;53.016;-2.260;2023-03-23T17:48:21;11.50;99.90
59307;DHT22;47983;53.016;-2.260;2023-03-23T17:50:53;11.40;99.90
59307;DHT22;47983;53.016;-2.260;2023-03-23T17:53:25;11.40;99.90
59307;DHT22;47983;53.016;-2.260;2023-03-23T17:55:52;11.30;99.90
59307;DHT22;47983;53.016;-2.260;2023-03-23T17:58:21;11.30;99.90
59307;DHT22;47983;53.016;-2.260;2023-03-23T18:00:49;11.20;99.90
59307;DHT22;47983;53.016;-2.260;2023-03-23T18:03:17;11.20;99.90
59307;DHT22;47983;53.016;-2.260;2023-03-23T18:05:45;11.20;99.90
59307;DHT22;47983;53.016;-2.260;2023-03-23T18:08:13;11.10;99.90
59307;DHT22;47983;53.016;-2.260;2023-03-23T18:10:41;11.10;99.90
59307;DHT22;47983;53.016;-2.260;2023-03-23T18:13:09;11.10;99.90
59307;DHT22;47983;53.016;-2.260;2023-03-23T18:15:36;11.10;99.90
59307;DHT22;47983;53.016;-2.260;2023-03-23T18:18:04;11.10;99.90
59307;DHT22;47983;53.016;-2.260;2023-03-23T18:20:32;11.10;99.90